sensor_id;sensor_type;location;lat;lon;timestamp;temperature;humidity
26691;DHT22;14307;51.718;8.938;2024-01-10T00:01:25;-5.40;99.90
26691;DHT22;14307;51.718;8.938;2024-01-10T00:03:56;-5.50;99.90
26691;DHT22;14307;51.718;8.938;2024-01-10T00:06:24;-5.50;99.90
26691;DHT22;14307;51.718;8.938;2024-01-10T00:08:50;-5.60;99.90
26691;DHT22;14307;51.718;8.938;2024-01-10T00:11:17;-5.70;99.90
26691;DHT22;14307;51.718;8.938;2024-01-10T00:13:44;-5.80;99.90
26691;DHT22;14307;51.718;8.938;2024-01-10T00:16:12;-5.90;99.90
26691;DHT22;14307;51.718;8.938;2024-01-10T00:18:45;-5.90;99.90
26691;DHT22;14307;51.718;8.938;2024-01-10T00:21:12;-6.10;99.90
26691;DHT22;14307;51.718;8.938;2024-01-10T00:23:39;-6.00;99.90
26691;DHT22;14307;51.718;8.938;2024-01-10T00:26:06;-6.00;99.90
26691;DHT22;14307;51.718;8.938;2024-01-10T00:28:33;-5.90;99.90
26691;DHT22;14307;51.718;8.938;2024-01-10T00:31:00;-6.00;99.90
26691;DHT22;14307;51.718;8.938;2024-01-10T00:33:27;-6.10;99.90
26691;DHT22;14307;51.718;8.938;2024-01-10T00:35:55;-6.10;99.90
26691;DHT22;14307;51.718;8.938;2024-01-10T00:38:22;-6.10;99.90
26691;DHT22;14307;51.718;8.938;2024-01-10T00:40:49;-6.20;99.90
26691;DHT22;14307;51.718;8.938;2024-01-10T00:43:15;-6.40;99.90
26691;DHT22;14307;51.718;8.938;2024-01-10T00:45:42;-6.40;99.90
26691;DHT22;14307;51.718;8.938;2024-01-10T00:48:09;-6.40;99.90
26691;DHT22;14307;51.718;8.938;2024-01-10T00:50:36;-6.30;99.90
26691;DHT22;14307;51.718;8.938;2024-01-10T00:53:03;-6.20;99.90
26691;DHT22;14307;51.718;8.938;2024-01-10T00:55:30;-6.20;99.90
26691;DHT22;14307;51.718;8.938;2024-01-10T00:57:57;-6.10;99.90
26691;DHT22;14307;51.718;8.938;2024-01-10T01:00:24;-6.10;99.90
26691;DHT22;14307;51.718;8.938;2024-01-10T01:02:50;-6.10;99.90
26691;DHT22;14307;51.718;8.938;2024-01-10T01:05:17;-6.00;99.90
26691;DHT22;14307;51.718;8.938;2024-01-10T01:07:44;-6.10;99.90
26691;DHT22;14307;51.718;8.938;2024-01-10T01:10:14;-6.10;99.90
26691;DHT22;14307;51.718;8.938;2024-01-10T01:12:40;-6.30;99.90
26691;DHT22;14307;51.718;8.938;2024-01-10T01:15:07;-6.30;99.90
26691;DHT22;14307;51.718;8.938;2024-01-10T01:17:34;-6.20;99.90
26691;DHT22;14307;51.718;8.938;2024-01-10T01:20:01;-6.20;99.90
26691;DHT22;14307;51.718;8.938;2024-01-10T01:22:31;-6.20;99.90
26691;DHT22;14307;51.718;8.938;2024-01-10T01:24:58;-6.40;99.90
26691;DHT22;14307;51.718;8.938;2024-01-10T01:27:25;-6.40;99.90
26691;DHT22;14307;51.718;8.938;2024-01-10T01:29:56;-6.50;99.90
26691;DHT22;14307;51.718;8.938;2024-01-10T01:32:22;-6.60;99.90
26691;DHT22;14307;51.718;8.938;2024-01-10T01:34:51;-6.70;99.90
26691;DHT22;14307;51.718;8.938;2024-01-10T01:37:18;-6.60;99.90
26691;DHT22;14307;51.718;8.938;2024-01-10T01:39:45;-6.60;99.90
26691;DHT22;14307;51.718;8.938;2024-01-10T01:42:12;-6.70;99.90
26691;DHT22;14307;51.718;8.938;2024-01-10T01:44:39;-6.70;99.90
26691;DHT22;14307;51.718;8.938;2024-01-10T01:47:06;-6.60;99.90
26691;DHT22;14307;51.718;8.938;2024-01-10T01:49:33;-6.60;99.90
26691;DHT22;14307;51.718;8.938;2024-01-10T01:52:01;-6.60;99.90
26691;DHT22;14307;51.718;8.938;2024-01-10T01:54:28;-6.70;99.90
26691;DHT22;14307;51.718;8.938;2024-01-10T01:56:55;-6.80;99.90
26691;DHT22;14307;51.718;8.938;2024-01-10T01:59:22;-6.70;99.90
26691;DHT22;14307;51.718;8.938;2024-01-10T02:01:51;-6.80;99.90
26691;DHT22;14307;51.718;8.938;2024-01-10T02:04:20;-6.80;99.90
26691;DHT22;14307;51.718;8.938;2024-01-10T02:06:47;-6.80;99.90
26691;DHT22;14307;51.718;8.938;2024-01-10T02:09:13;-6.80;99.90
26691;DHT22;14307;51.718;8.938;2024-01-10T02:11:40;-6.80;99.90
26691;DHT22;14307;51.718;8.938;2024-01-10T02:14:08;-6.70;99.90
26691;DHT22;14307;51.718;8.938;2024-01-10T02:16:35;-6.80;99.90
26691;DHT22;14307;51.718;8.938;2024-01-10T02:19:17;-6.70;99.90
26691;DHT22;14307;51.718;8.938;2024-01-10T02:21:44;-6.90;99.90
26691;DHT22;14307;51.718;8.938;2024-01-10T02:24:11;-6.80;99.90
26691;DHT22;14307;51.718;8.938;2024-01-10T02:26:39;-6.70;99.90
26691;DHT22;14307;51.718;8.938;2024-01-10T02:29:06;-6.60;99.90
26691;DHT22;14307;51.718;8.938;2024-01-10T02:31:33;-6.50;99.90
26691;DHT22;14307;51.718;8.938;2024-01-10T02:34:00;-6.50;99.90
26691;DHT22;14307;51.718;8.938;2024-01-10T02:36:26;-6.40;99.90
26691;DHT22;14307;51.718;8.938;2024-01-10T02:38:53;-6.40;99.90
26691;DHT22;14307;51.718;8.938;2024-01-10T02:41:22;-6.40;99.90
26691;DHT22;14307;51.718;8.938;2024-01-10T02:43:49;-6.20;99.90
26691;DHT22;14307;51.718;8.938;2024-01-10T02:46:41;-6.20;99.90
26691;DHT22;14307;51.718;8.938;2024-01-10T02:49:08;-6.20;99.90
26691;DHT22;14307;51.718;8.938;2024-01-10T02:51:35;-6.20;99.90
26691;DHT22;14307;51.718;8.938;2024-01-10T02:54:02;-6.20;99.90
26691;DHT22;14307;51.718;8.938;2024-01-10T02:56:28;-6.40;99.90
26691;DHT22;14307;51.718;8.938;2024-01-10T02:58:57;-6.40;99.90
26691;DHT22;14307;51.718;8.938;2024-01-10T03:01:29;-6.50;99.90
26691;DHT22;14307;51.718;8.938;2024-01-10T03:03:56;-6.50;99.90
26691;DHT22;14307;51.718;8.938;2024-01-10T03:06:23;-6.50;99.90
26691;DHT22;14307;51.718;8.938;2024-01-10T03:08:51;-6.60;99.90
26691;DHT22;14307;51.718;8.938;2024-01-10T03:11:20;-6.70;99.90
26691;DHT22;14307;51.718;8.938;2024-01-10T03:13:49;-6.70;99.90
26691;DHT22;14307;51.718;8.938;2024-01-10T03:16:16;-6.70;99.90
26691;DHT22;14307;51.718;8.938;2024-01-10T03:18:43;-6.80;99.90
26691;DHT22;14307;51.718;8.938;2024-01-10T03:21:13;-6.80;99.90
26691;DHT22;14307;51.718;8.938;2024-01-10T03:23:40;-6.70;99.90
26691;DHT22;14307;51.718;8.938;2024-01-10T03:26:06;-6.80;99.90
26691;DHT22;14307;51.718;8.938;2024-01-10T03:28:34;-6.80;99.90
26691;DHT22;14307;51.718;8.938;2024-01-10T03:31:02;-6.90;99.90
26691;DHT22;14307;51.718;8.938;2024-01-10T03:33:32;-6.80;99.90
26691;DHT22;14307;51.718;8.938;2024-01-10T03:35:59;-6.90;99.90
26691;DHT22;14307;51.718;8.938;2024-01-10T03:38:26;-7.10;99.90
26691;DHT22;14307;51.718;8.938;2024-01-10T03:40:53;-7.10;99.90
26691;DHT22;14307;51.718;8.938;2024-01-10T03:43:20;-7.20;99.90
26691;DHT22;14307;51.718;8.938;2024-01-10T03:45:46;-7.20;99.90
26691;DHT22;14307;51.718;8.938;2024-01-10T03:48:13;-7.30;99.90
26691;DHT22;14307;51.718;8.938;2024-01-10T03:50:40;-7.30;99.90
26691;DHT22;14307;51.718;8.938;2024-01-10T03:53:07;-7.20;99.90
26691;DHT22;14307;51.718;8.938;2024-01-10T03:55:34;-7.20;99.90
26691;DHT22;14307;51.718;8.938;2024-01-10T03:58:00;-7.20;99.90
26691;DHT22;14307;51.718;8.938;2024-01-10T04:00:27;-7.30;99.90
26691;DHT22;14307;51.718;8.938;2024-01-10T04:02:54;-7.40;99.90
26691;DHT22;14307;51.718;8.938;2024-01-10T04:05:21;-7.50;99.90
26691;DHT22;14307;51.718;8.938;2024-01-10T04:07:48;-7.40;99.90
26691;DHT22;14307;51.718;8.938;2024-01-10T04:10:18;-7.30;99.90
26691;DHT22;14307;51.718;8.938;2024-01-10T04:12:46;-7.20;99.90
26691;DHT22;14307;51.718;8.938;2024-01-10T04:15:13;-7.40;99.90
26691;DHT22;14307;51.718;8.938;2024-01-10T04:17:40;-7.40;99.90
26691;DHT22;14307;51.718;8.938;2024-01-10T04:20:09;-7.40;99.90
26691;DHT22;14307;51.718;8.938;2024-01-10T04:22:36;-7.40;99.90
26691;DHT22;14307;51.718;8.938;2024-01-10T04:25:06;-7.30;99.90
26691;DHT22;14307;51.718;8.938;2024-01-10T04:27:33;-7.20;99.90
26691;DHT22;14307;51.718;8.938;2024-01-10T04:30:00;-7.10;99.90
26691;DHT22;14307;51.718;8.938;2024-01-10T04:32:27;-7.10;99.90
26691;DHT22;14307;51.718;8.938;2024-01-10T04:34:54;-7.20;99.90
26691;DHT22;14307;51.718;8.938;2024-01-10T04:37:21;-7.20;99.90
26691;DHT22;14307;51.718;8.938;2024-01-10T04:39:48;-7.20;99.90
26691;DHT22;14307;51.718;8.938;2024-01-10T04:42:14;-7.20;99.90
26691;DHT22;14307;51.718;8.938;2024-01-10T04:44:41;-7.20;99.90
26691;DHT22;14307;51.718;8.938;2024-01-10T04:47:08;-7.20;99.90
26691;DHT22;14307;51.718;8.938;2024-01-10T04:49:36;-7.20;99.90
26691;DHT22;14307;51.718;8.938;2024-01-10T04:52:03;-7.00;99.90
26691;DHT22;14307;51.718;8.938;2024-01-10T04:54:30;-7.00;99.90
26691;DHT22;14307;51.718;8.938;2024-01-10T04:56:57;-7.00;99.90
26691;DHT22;14307;51.718;8.938;2024-01-10T04:59:24;-7.20;99.90
26691;DHT22;14307;51.718;8.938;2024-01-10T05:01:51;-7.20;99.90
26691;DHT22;14307;51.718;8.938;2024-01-10T05:04:18;-7.20;99.90
26691;DHT22;14307;51.718;8.938;2024-01-10T05:06:44;-7.20;99.90
26691;DHT22;14307;51.718;8.938;2024-01-10T05:09:12;-7.30;99.90
26691;DHT22;14307;51.718;8.938;2024-01-10T05:11:39;-7.30;99.90
26691;DHT22;14307;51.718;8.938;2024-01-10T05:14:07;-7.20;99.90
26691;DHT22;14307;51.718;8.938;2024-01-10T05:16:34;-7.40;99.90
26691;DHT22;14307;51.718;8.938;2024-01-10T05:19:01;-7.60;99.90
26691;DHT22;14307;51.718;8.938;2024-01-10T05:21:32;-7.50;99.90
26691;DHT22;14307;51.718;8.938;2024-01-10T05:23:59;-7.60;99.90
26691;DHT22;14307;51.718;8.938;2024-01-10T05:26:26;-7.70;99.90
26691;DHT22;14307;51.718;8.938;2024-01-10T05:28:52;-7.70;99.90
26691;DHT22;14307;51.718;8.938;2024-01-10T05:31:19;-7.80;99.90
26691;DHT22;14307;51.718;8.938;2024-01-10T05:33:47;-7.70;99.90
26691;DHT22;14307;51.718;8.938;2024-01-10T05:36:14;-7.60;99.90
26691;DHT22;14307;51.718;8.938;2024-01-10T05:38:41;-7.60;99.90
26691;DHT22;14307;51.718;8.938;2024-01-10T05:41:08;-7.70;99.90
26691;DHT22;14307;51.718;8.938;2024-01-10T05:43:35;-7.50;99.90
26691;DHT22;14307;51.718;8.938;2024-01-10T05:46:02;-7.50;99.90
26691;DHT22;14307;51.718;8.938;2024-01-10T05:48:31;-7.50;99.90
26691;DHT22;14307;51.718;8.938;2024-01-10T05:50:59;-7.50;99.90
26691;DHT22;14307;51.718;8.938;2024-01-10T05:53:26;-7.40;99.90
26691;DHT22;14307;51.718;8.938;2024-01-10T05:55:52;-7.30;99.90
26691;DHT22;14307;51.718;8.938;2024-01-10T05:58:19;-7.30;99.90
26691;DHT22;14307;51.718;8.938;2024-01-10T06:00:47;-7.30;99.90
26691;DHT22;14307;51.718;8.938;2024-01-10T06:03:13;-7.30;99.90
26691;DHT22;14307;51.718;8.938;2024-01-10T06:05:40;-7.30;99.90
26691;DHT22;14307;51.718;8.938;2024-01-10T06:08:07;-7.30;99.90
26691;DHT22;14307;51.718;8.938;2024-01-10T06:10:34;-7.40;99.90
26691;DHT22;14307;51.718;8.938;2024-01-10T06:13:03;-7.30;99.90
26691;DHT22;14307;51.718;8.938;2024-01-10T06:15:30;-7.20;99.90
26691;DHT22;14307;51.718;8.938;2024-01-10T06:17:57;-7.20;99.90
26691;DHT22;14307;51.718;8.938;2024-01-10T06:20:25;-7.30;99.90
26691;DHT22;14307;51.718;8.938;2024-01-10T06:22:52;-7.30;99.90
26691;DHT22;14307;51.718;8.938;2024-01-10T06:25:19;-7.30;99.90
26691;DHT22;14307;51.718;8.938;2024-01-10T06:27:46;-7.50;99.90
26691;DHT22;14307;51.718;8.938;2024-01-10T06:30:13;-7.60;99.90
26691;DHT22;14307;51.718;8.938;2024-01-10T06:32:40;-7.50;99.90
26691;DHT22;14307;51.718;8.938;2024-01-10T06:35:07;-7.60;99.90
26691;DHT22;14307;51.718;8.938;2024-01-10T06:37:38;-7.60;99.90
26691;DHT22;14307;51.718;8.938;2024-01-10T06:40:05;-7.60;99.90
26691;DHT22;14307;51.718;8.938;2024-01-10T06:42:32;-7.60;99.90
26691;DHT22;14307;51.718;8.938;2024-01-10T06:44:59;-7.70;99.90
26691;DHT22;14307;51.718;8.938;2024-01-10T06:47:26;-7.70;99.90
26691;DHT22;14307;51.718;8.938;2024-01-10T06:49:53;-7.60;99.90
26691;DHT22;14307;51.718;8.938;2024-01-10T06:52:20;-7.60;99.90
26691;DHT22;14307;51.718;8.938;2024-01-10T06:54:47;-7.60;99.90
26691;DHT22;14307;51.718;8.938;2024-01-10T06:57:14;-7.50;99.90
26691;DHT22;14307;51.718;8.938;2024-01-10T06:59:41;-7.50;99.90
26691;DHT22;14307;51.718;8.938;2024-01-10T07:02:08;-7.40;99.90
26691;DHT22;14307;51.718;8.938;2024-01-10T07:04:37;-7.30;99.90
26691;DHT22;14307;51.718;8.938;2024-01-10T07:07:04;-7.30;99.90
26691;DHT22;14307;51.718;8.938;2024-01-10T07:09:33;-7.30;99.90
26691;DHT22;14307;51.718;8.938;2024-01-10T07:12:00;-7.30;99.90
26691;DHT22;14307;51.718;8.938;2024-01-10T07:14:30;-7.20;99.90
26691;DHT22;14307;51.718;8.938;2024-01-10T07:16:57;-7.30;99.90
26691;DHT22;14307;51.718;8.938;2024-01-10T07:19:24;-7.40;99.90
26691;DHT22;14307;51.718;8.938;2024-01-10T07:21:51;-7.40;99.90
26691;DHT22;14307;51.718;8.938;2024-01-10T07:24:20;-7.30;99.90
26691;DHT22;14307;51.718;8.938;2024-01-10T07:26:48;-7.00;99.90
26691;DHT22;14307;51.718;8.938;2024-01-10T07:29:14;-7.00;99.90
26691;DHT22;14307;51.718;8.938;2024-01-10T07:31:41;-6.90;99.90
26691;DHT22;14307;51.718;8.938;2024-01-10T07:34:08;-6.80;99.90
26691;DHT22;14307;51.718;8.938;2024-01-10T07:36:42;-6.70;99.90
26691;DHT22;14307;51.718;8.938;2024-01-10T07:39:10;-6.70;99.90
26691;DHT22;14307;51.718;8.938;2024-01-10T07:41:36;-6.70;99.90
26691;DHT22;14307;51.718;8.938;2024-01-10T07:44:03;-6.70;99.90
26691;DHT22;14307;51.718;8.938;2024-01-10T07:46:30;-6.70;99.90
26691;DHT22;14307;51.718;8.938;2024-01-10T07:48:57;-6.70;99.90
26691;DHT22;14307;51.718;8.938;2024-01-10T07:51:27;-6.70;99.90
26691;DHT22;14307;51.718;8.938;2024-01-10T07:53:53;-6.60;99.90
26691;DHT22;14307;51.718;8.938;2024-01-10T07:56:20;-6.60;99.90
26691;DHT22;14307;51.718;8.938;2024-01-10T07:58:47;-6.60;99.90
26691;DHT22;14307;51.718;8.938;2024-01-10T08:01:15;-6.60;99.90
26691;DHT22;14307;51.718;8.938;2024-01-10T08:03:42;-6.50;99.90
26691;DHT22;14307;51.718;8.938;2024-01-10T08:06:09;-6.40;99.90
26691;DHT22;14307;51.718;8.938;2024-01-10T08:08:49;-6.40;99.90
26691;DHT22;14307;51.718;8.938;2024-01-10T08:11:16;-6.40;99.90
26691;DHT22;14307;51.718;8.938;2024-01-10T08:13:43;-6.30;99.90
26691;DHT22;14307;51.718;8.938;2024-01-10T08:16:10;-6.30;99.90
26691;DHT22;14307;51.718;8.938;2024-01-10T08:18:40;-6.30;99.90
26691;DHT22;14307;51.718;8.938;2024-01-10T08:21:06;-6.30;99.90
26691;DHT22;14307;51.718;8.938;2024-01-10T08:23:33;-6.20;99.90
26691;DHT22;14307;51.718;8.938;2024-01-10T08:26:00;-6.30;99.90
26691;DHT22;14307;51.718;8.938;2024-01-10T08:28:28;-6.30;99.90
26691;DHT22;14307;51.718;8.938;2024-01-10T08:30:54;-6.20;99.90
26691;DHT22;14307;51.718;8.938;2024-01-10T08:33:30;-6.20;99.90
26691;DHT22;14307;51.718;8.938;2024-01-10T08:35:58;-6.20;99.90
26691;DHT22;14307;51.718;8.938;2024-01-10T08:38:26;-6.10;99.90
26691;DHT22;14307;51.718;8.938;2024-01-10T08:40:53;-6.00;99.90
26691;DHT22;14307;51.718;8.938;2024-01-10T08:43:20;-5.90;99.90
26691;DHT22;14307;51.718;8.938;2024-01-10T08:45:47;-5.80;99.90
26691;DHT22;14307;51.718;8.938;2024-01-10T08:48:14;-5.70;99.90
26691;DHT22;14307;51.718;8.938;2024-01-10T08:50:42;-5.60;99.90
26691;DHT22;14307;51.718;8.938;2024-01-10T08:53:10;-5.40;99.90
26691;DHT22;14307;51.718;8.938;2024-01-10T08:55:38;-5.30;99.90
26691;DHT22;14307;51.718;8.938;2024-01-10T08:58:05;-5.20;99.90
26691;DHT22;14307;51.718;8.938;2024-01-10T09:00:32;-5.20;99.90
26691;DHT22;14307;51.718;8.938;2024-01-10T09:02:59;-5.10;99.90
26691;DHT22;14307;51.718;8.938;2024-01-10T09:05:26;-5.10;99.90
26691;DHT22;14307;51.718;8.938;2024-01-10T09:07:53;-5.00;99.90
26691;DHT22;14307;51.718;8.938;2024-01-10T09:10:21;-4.70;99.90
26691;DHT22;14307;51.718;8.938;2024-01-10T09:12:57;-4.60;99.90
26691;DHT22;14307;51.718;8.938;2024-01-10T09:15:25;-4.50;99.90
26691;DHT22;14307;51.718;8.938;2024-01-10T09:17:53;-4.60;99.90
26691;DHT22;14307;51.718;8.938;2024-01-10T09:20:20;-4.50;99.90
26691;DHT22;14307;51.718;8.938;2024-01-10T09:22:48;-4.10;99.90
26691;DHT22;14307;51.718;8.938;2024-01-10T09:25:16;-4.10;99.90
26691;DHT22;14307;51.718;8.938;2024-01-10T09:27:43;-4.10;99.90
26691;DHT22;14307;51.718;8.938;2024-01-10T09:30:12;-3.90;99.90
26691;DHT22;14307;51.718;8.938;2024-01-10T09:32:39;-3.70;99.90
26691;DHT22;14307;51.718;8.938;2024-01-10T09:35:07;-3.60;99.90
26691;DHT22;14307;51.718;8.938;2024-01-10T09:37:35;-3.50;99.90
26691;DHT22;14307;51.718;8.938;2024-01-10T09:40:08;-3.50;99.90
26691;DHT22;14307;51.718;8.938;2024-01-10T09:42:36;-3.10;99.90
26691;DHT22;14307;51.718;8.938;2024-01-10T09:45:04;-3.00;99.90
26691;DHT22;14307;51.718;8.938;2024-01-10T09:47:32;-2.80;99.90
26691;DHT22;14307;51.718;8.938;2024-01-10T09:50:01;-2.60;99.90
26691;DHT22;14307;51.718;8.938;2024-01-10T09:52:34;-2.30;99.90
26691;DHT22;14307;51.718;8.938;2024-01-10T09:55:04;-2.30;99.90
26691;DHT22;14307;51.718;8.938;2024-01-10T09:57:32;-2.50;99.90
26691;DHT22;14307;51.718;8.938;2024-01-10T10:00:00;-2.60;99.90
26691;DHT22;14307;51.718;8.938;2024-01-10T10:02:33;-2.70;99.90
26691;DHT22;14307;51.718;8.938;2024-01-10T10:05:12;-2.70;99.90
26691;DHT22;14307;51.718;8.938;2024-01-10T10:07:50;-2.70;99.90
26691;DHT22;14307;51.718;8.938;2024-01-10T10:10:19;-2.60;99.90
26691;DHT22;14307;51.718;8.938;2024-01-10T10:12:52;-2.60;99.90
26691;DHT22;14307;51.718;8.938;2024-01-10T10:15:23;-2.80;99.90
26691;DHT22;14307;51.718;8.938;2024-01-10T10:17:50;-2.80;99.90
26691;DHT22;14307;51.718;8.938;2024-01-10T10:23:03;-2.80;99.90
26691;DHT22;14307;51.718;8.938;2024-01-10T10:25:50;-2.80;99.90
26691;DHT22;14307;51.718;8.938;2024-01-10T10:28:17;-2.60;99.90
26691;DHT22;14307;51.718;8.938;2024-01-10T10:30:55;-2.50;99.90
26691;DHT22;14307;51.718;8.938;2024-01-10T10:33:22;-2.50;99.90
26691;DHT22;14307;51.718;8.938;2024-01-10T10:35:50;-2.40;99.90
26691;DHT22;14307;51.718;8.938;2024-01-10T10:38:22;-2.50;99.90
26691;DHT22;14307;51.718;8.938;2024-01-10T10:40:50;-2.50;99.90
26691;DHT22;14307;51.718;8.938;2024-01-10T10:43:19;-2.50;99.90
26691;DHT22;14307;51.718;8.938;2024-01-10T10:45:50;-2.50;99.90
26691;DHT22;14307;51.718;8.938;2024-01-10T10:48:18;-2.50;99.90
26691;DHT22;14307;51.718;8.938;2024-01-10T10:51:02;-2.40;99.90
26691;DHT22;14307;51.718;8.938;2024-01-10T10:53:31;-2.40;99.90
26691;DHT22;14307;51.718;8.938;2024-01-10T10:56:00;-2.40;99.90
26691;DHT22;14307;51.718;8.938;2024-01-10T10:58:40;-2.50;99.90
26691;DHT22;14307;51.718;8.938;2024-01-10T11:01:09;-2.50;99.90
26691;DHT22;14307;51.718;8.938;2024-01-10T11:03:38;-2.30;99.90
26691;DHT22;14307;51.718;8.938;2024-01-10T11:06:07;-2.20;99.90
26691;DHT22;14307;51.718;8.938;2024-01-10T11:08:39;-2.00;99.90
26691;DHT22;14307;51.718;8.938;2024-01-10T11:16:45;-2.10;99.90
26691;DHT22;14307;51.718;8.938;2024-01-10T11:19:40;-2.00;99.90
26691;DHT22;14307;51.718;8.938;2024-01-10T11:22:43;-1.80;99.90
26691;DHT22;14307;51.718;8.938;2024-01-10T11:25:13;-1.90;99.90
26691;DHT22;14307;51.718;8.938;2024-01-10T11:27:42;-1.90;99.90
26691;DHT22;14307;51.718;8.938;2024-01-10T11:30:11;-1.80;99.90
26691;DHT22;14307;51.718;8.938;2024-01-10T11:32:39;-1.70;99.90
26691;DHT22;14307;51.718;8.938;2024-01-10T11:35:19;-1.70;99.90
26691;DHT22;14307;51.718;8.938;2024-01-10T11:37:47;-1.70;99.90
26691;DHT22;14307;51.718;8.938;2024-01-10T11:40:45;-1.70;99.90
26691;DHT22;14307;51.718;8.938;2024-01-10T11:43:13;-1.70;99.90
26691;DHT22;14307;51.718;8.938;2024-01-10T11:45:56;-1.50;99.90
26691;DHT22;14307;51.718;8.938;2024-01-10T11:48:27;-1.30;99.90
26691;DHT22;14307;51.718;8.938;2024-01-10T11:50:57;-1.30;99.90
26691;DHT22;14307;51.718;8.938;2024-01-10T11:53:42;-1.40;99.90
26691;DHT22;14307;51.718;8.938;2024-01-10T11:56:10;-1.30;99.90
26691;DHT22;14307;51.718;8.938;2024-01-10T11:59:02;-1.20;99.90
26691;DHT22;14307;51.718;8.938;2024-01-10T12:01:38;-1.20;99.90
26691;DHT22;14307;51.718;8.938;2024-01-10T12:04:08;-1.20;99.90
26691;DHT22;14307;51.718;8.938;2024-01-10T12:06:49;-1.20;99.90
26691;DHT22;14307;51.718;8.938;2024-01-10T12:09:17;-1.20;99.90
26691;DHT22;14307;51.718;8.938;2024-01-10T12:11:44;-1.20;99.90
26691;DHT22;14307;51.718;8.938;2024-01-10T12:14:12;-1.10;99.90
26691;DHT22;14307;51.718;8.938;2024-01-10T12:16:40;-1.20;99.90
26691;DHT22;14307;51.718;8.938;2024-01-10T12:19:07;-1.10;99.90
26691;DHT22;14307;51.718;8.938;2024-01-10T12:21:35;-1.10;99.90
26691;DHT22;14307;51.718;8.938;2024-01-10T12:24:06;-1.20;99.90
26691;DHT22;14307;51.718;8.938;2024-01-10T12:26:33;-1.00;99.90
26691;DHT22;14307;51.718;8.938;2024-01-10T12:29:02;-1.00;99.90
26691;DHT22;14307;51.718;8.938;2024-01-10T12:31:33;-1.20;99.90
26691;DHT22;14307;51.718;8.938;2024-01-10T12:34:01;-1.30;99.90
26691;DHT22;14307;51.718;8.938;2024-01-10T12:36:31;-1.20;99.90
26691;DHT22;14307;51.718;8.938;2024-01-10T12:38:58;-1.20;99.90
26691;DHT22;14307;51.718;8.938;2024-01-10T12:41:26;-1.10;99.90
26691;DHT22;14307;51.718;8.938;2024-01-10T12:44:00;-1.00;99.90
26691;DHT22;14307;51.718;8.938;2024-01-10T12:46:33;-1.00;99.90
26691;DHT22;14307;51.718;8.938;2024-01-10T12:49:06;-1.00;99.90
26691;DHT22;14307;51.718;8.938;2024-01-10T12:51:35;-0.90;99.90
26691;DHT22;14307;51.718;8.938;2024-01-10T12:54:16;-0.80;99.90
26691;DHT22;14307;51.718;8.938;2024-01-10T12:56:49;-0.80;99.90
26691;DHT22;14307;51.718;8.938;2024-01-10T12:59:17;-0.70;99.90
26691;DHT22;14307;51.718;8.938;2024-01-10T13:01:44;-0.70;99.90
26691;DHT22;14307;51.718;8.938;2024-01-10T13:04:12;-0.60;99.90
26691;DHT22;14307;51.718;8.938;2024-01-10T13:06:39;-0.50;99.90
26691;DHT22;14307;51.718;8.938;2024-01-10T13:09:09;-0.40;99.90
26691;DHT22;14307;51.718;8.938;2024-01-10T13:11:36;-0.40;99.90
26691;DHT22;14307;51.718;8.938;2024-01-10T13:14:04;-0.40;99.90
26691;DHT22;14307;51.718;8.938;2024-01-10T13:16:31;-0.40;99.90
26691;DHT22;14307;51.718;8.938;2024-01-10T13:19:15;-0.30;99.90
26691;DHT22;14307;51.718;8.938;2024-01-10T13:21:42;-0.30;99.90
26691;DHT22;14307;51.718;8.938;2024-01-10T13:24:11;-0.30;99.90
26691;DHT22;14307;51.718;8.938;2024-01-10T13:26:38;-0.30;99.90
26691;DHT22;14307;51.718;8.938;2024-01-10T13:29:06;-0.40;99.90
26691;DHT22;14307;51.718;8.938;2024-01-10T13:31:34;-0.30;99.90
26691;DHT22;14307;51.718;8.938;2024-01-10T13:34:01;-0.40;99.90
26691;DHT22;14307;51.718;8.938;2024-01-10T13:36:30;-0.50;99.90
26691;DHT22;14307;51.718;8.938;2024-01-10T13:38:57;-0.50;99.90
26691;DHT22;14307;51.718;8.938;2024-01-10T13:41:25;-0.50;99.90
26691;DHT22;14307;51.718;8.938;2024-01-10T13:43:53;-0.50;99.90
26691;DHT22;14307;51.718;8.938;2024-01-10T13:46:20;-0.50;99.90
26691;DHT22;14307;51.718;8.938;2024-01-10T13:48:49;-0.40;99.90
26691;DHT22;14307;51.718;8.938;2024-01-10T13:51:16;-0.40;99.90
26691;DHT22;14307;51.718;8.938;2024-01-10T13:53:44;-0.40;99.90
26691;DHT22;14307;51.718;8.938;2024-01-10T13:56:11;-0.40;99.90
26691;DHT22;14307;51.718;8.938;2024-01-10T13:58:39;-0.40;99.90
26691;DHT22;14307;51.718;8.938;2024-01-10T14:01:06;-0.30;99.90
26691;DHT22;14307;51.718;8.938;2024-01-10T14:03:33;-0.30;99.90
26691;DHT22;14307;51.718;8.938;2024-01-10T14:06:00;-0.40;99.90
26691;DHT22;14307;51.718;8.938;2024-01-10T14:08:28;-0.40;99.90
26691;DHT22;14307;51.718;8.938;2024-01-10T14:11:01;-0.40;99.90
26691;DHT22;14307;51.718;8.938;2024-01-10T14:13:32;-0.40;99.90
26691;DHT22;14307;51.718;8.938;2024-01-10T14:15:59;-0.50;99.90
26691;DHT22;14307;51.718;8.938;2024-01-10T14:18:26;-0.40;99.90
26691;DHT22;14307;51.718;8.938;2024-01-10T14:20:54;-0.40;99.90
26691;DHT22;14307;51.718;8.938;2024-01-10T14:23:21;-0.50;99.90
26691;DHT22;14307;51.718;8.938;2024-01-10T14:25:48;-0.50;99.90
26691;DHT22;14307;51.718;8.938;2024-01-10T14:28:47;-0.60;99.90
26691;DHT22;14307;51.718;8.938;2024-01-10T14:31:17;-0.70;99.90
26691;DHT22;14307;51.718;8.938;2024-01-10T14:33:59;-0.70;99.90
26691;DHT22;14307;51.718;8.938;2024-01-10T14:36:27;-0.70;99.90
26691;DHT22;14307;51.718;8.938;2024-01-10T14:38:54;-0.70;99.90
26691;DHT22;14307;51.718;8.938;2024-01-10T14:41:22;-0.70;99.90
26691;DHT22;14307;51.718;8.938;2024-01-10T14:43:52;-0.70;99.90
26691;DHT22;14307;51.718;8.938;2024-01-10T14:46:19;-0.70;99.90
26691;DHT22;14307;51.718;8.938;2024-01-10T14:48:47;-0.70;99.90
26691;DHT22;14307;51.718;8.938;2024-01-10T14:51:14;-0.70;99.90
26691;DHT22;14307;51.718;8.938;2024-01-10T14:53:42;-0.80;99.90
26691;DHT22;14307;51.718;8.938;2024-01-10T14:56:09;-0.80;99.90
26691;DHT22;14307;51.718;8.938;2024-01-10T14:58:36;-0.80;99.90
26691;DHT22;14307;51.718;8.938;2024-01-10T15:01:07;-0.80;99.90
26691;DHT22;14307;51.718;8.938;2024-01-10T15:03:36;-0.80;99.90
26691;DHT22;14307;51.718;8.938;2024-01-10T15:06:04;-0.80;99.90
26691;DHT22;14307;51.718;8.938;2024-01-10T15:08:40;-0.80;99.90
26691;DHT22;14307;51.718;8.938;2024-01-10T15:11:16;-0.80;99.90
26691;DHT22;14307;51.718;8.938;2024-01-10T15:13:47;-0.80;99.90
26691;DHT22;14307;51.718;8.938;2024-01-10T15:16:22;-0.80;99.90
26691;DHT22;14307;51.718;8.938;2024-01-10T15:18:49;-0.80;99.90
26691;DHT22;14307;51.718;8.938;2024-01-10T15:21:18;-0.90;99.90
26691;DHT22;14307;51.718;8.938;2024-01-10T15:23:47;-0.90;99.90
26691;DHT22;14307;51.718;8.938;2024-01-10T15:26:17;-1.00;99.90
26691;DHT22;14307;51.718;8.938;2024-01-10T15:28:48;-1.00;99.90
26691;DHT22;14307;51.718;8.938;2024-01-10T15:31:17;-1.10;99.90
26691;DHT22;14307;51.718;8.938;2024-01-10T15:33:44;-1.20;99.90
26691;DHT22;14307;51.718;8.938;2024-01-10T15:36:13;-1.20;99.90
26691;DHT22;14307;51.718;8.938;2024-01-10T15:38:43;-1.30;99.90
26691;DHT22;14307;51.718;8.938;2024-01-10T15:41:11;-1.50;99.90
26691;DHT22;14307;51.718;8.938;2024-01-10T15:43:38;-1.60;99.90
26691;DHT22;14307;51.718;8.938;2024-01-10T15:46:05;-1.60;99.90
26691;DHT22;14307;51.718;8.938;2024-01-10T15:48:33;-1.60;99.90